Home   Weather   Northern Ireland   Past weeks
Flag for United Kingdom

Past Weather in Northern Ireland, Northern Ireland, United Kingdom — July 2021

Currently: 55 °F. Lots of rain. Passing clouds. (Weather station: Belfast / Aldergrove Airport, United Kingdom). See more current weather

July 2021 Weather in Northern Ireland — Graph

°F

High & Low Weather Summary for July 2021

 TemperatureHumidityPressure
High84 °F (Jul 21, 2:20 pm)100% (Jul 1, 12:50 am)30.42 "Hg (Jul 1, 12:50 am)
Low46 °F (Jul 1, 12:50 am)36% (Jul 25, 6:20 pm)29.39 "Hg (Jul 6, 2:20 am)
Average62 °F81%29.95 "Hg
* Reported Jul 1 12:20 am — Jul 31 11:50 pm, Northern Ireland. Weather by CustomWeather, © 2024

Note: Actual official high and low records may vary slightly from our data, if they occured in-between our weather recording intervals... More about our weather records

Northern Ireland Weather History for July 1, 2021

Scroll right to see more
 ConditionsComfort  
Time TempWeatherWind HumidityBarometerVisibility
12:20 am
Thu, Jul 1
48 °FClear.No wind94%30.09 "Hg4 mi
12:50 am46 °FFog.1 mph100%30.09 "Hg2 mi
1:20 am46 °FFog.2 mph93%30.09 "Hg2 mi
1:50 am46 °FFog.3 mph93%30.09 "Hg1 mi
2:20 am46 °FFog.2 mph100%30.09 "Hg0 mi
2:50 am48 °FFog.2 mph94%30.09 "Hg0 mi
3:20 am48 °FFog.1 mph100%30.09 "Hg0 mi
3:50 am48 °FFog.2 mph100%30.09 "Hg0 mi
4:20 am48 °FFog.2 mph100%30.09 "Hg0 mi
4:50 am48 °FFog.2 mph100%30.07 "Hg0 mi
5:20 am48 °FFog.2 mph100%30.09 "Hg0 mi
5:50 am48 °FFog.2 mph100%30.09 "Hg0 mi
6:20 am48 °FFog.2 mph100%30.07 "Hg0 mi
6:50 am48 °FFog.3 mph100%30.07 "Hg1 mi
7:20 am50 °FFog.3 mph100%30.07 "Hg3 mi
7:50 am52 °FBroken clouds.2 mph94%30.07 "Hg6 mi
8:20 am52 °FBroken clouds.2 mph100%30.07 "Hg6 mi
8:50 am54 °FMore clouds than sun.1 mph94%30.07 "Hg6 mi
9:20 am54 °FBroken clouds.1 mph100%30.07 "HgN/A
9:50 am55 °FPartly sunny.2 mph100%30.09 "HgN/A
10:50 am59 °FLow clouds.3 mph88%30.07 "Hg4 mi
11:20 am59 °FLow clouds.2 mph88%30.07 "Hg4 mi
11:50 am59 °FPartly sunny.5 mph88%30.07 "Hg4 mi
12:20 pm59 °FPartly sunny.3 mph88%30.07 "Hg5 mi
12:50 pm59 °FPartly sunny.3 mph88%30.07 "Hg5 mi
1:20 pm61 °FPartly sunny.3 mph83%30.07 "Hg5 mi
1:50 pm61 °FPassing clouds.2 mph88%30.07 "HgN/A
2:20 pm63 °FClear.3 mph83%30.07 "Hg5 mi
3:20 pm64 °FPartly sunny.2 mph73%30.07 "Hg4 mi
3:50 pm66 °FPartly sunny.3 mph73%30.07 "HgN/A
5:20 pm68 °FPassing clouds.6 mph64%30.04 "HgN/A
5:50 pm68 °FSunny.3 mph64%30.04 "Hg10 mi
6:20 pm68 °FPassing clouds.5 mph64%30.04 "HgN/A
6:50 pm68 °FPassing clouds.5 mph64%30.04 "HgN/A
7:20 pm70 °FPassing clouds.3 mph60%30.01 "HgN/A
7:50 pm68 °FPassing clouds.5 mph64%30.01 "HgN/A
8:20 pm68 °FPassing clouds.3 mph64%30.01 "HgN/A
8:50 pm66 °FScattered clouds.2 mph68%30.01 "HgN/A
9:20 pm66 °FPartly sunny.3 mph68%30.01 "HgN/A
9:50 pm63 °FPassing clouds.7 mph83%30.01 "HgN/A
10:20 pm59 °FPassing clouds.6 mph88%30.04 "HgN/A
10:50 pm57 °FPassing clouds.5 mph88%30.04 "HgN/A
11:20 pm55 °FClear.2 mph88%30.04 "Hg10 mi
11:50 pm54 °FPassing clouds.2 mph94%30.04 "HgN/A
Weather by CustomWeather, © 2024

See weather overview